createdAt,value
2023-03-29T00:04:27.537Z,8.13
2023-03-29T00:10:31.334Z,8.00
2023-03-29T00:16:33.643Z,11.00
2023-03-29T00:22:37.134Z,11.93
2023-03-29T00:28:38.956Z,7.70
2023-03-29T00:34:42.709Z,8.75
2023-03-29T00:40:47.082Z,8.07
2023-03-29T00:46:49.061Z,11.80
2023-03-29T00:53:09.168Z,12.75
2023-03-29T00:59:24.008Z,9.00
2023-03-29T01:05:34.761Z,8.88
2023-03-29T01:11:58.394Z,9.55
2023-03-29T01:18:02.020Z,13.50
2023-03-29T01:24:42.061Z,10.15
2023-03-29T01:30:56.205Z,9.27
2023-03-29T01:37:04.405Z,9.02
2023-03-29T01:43:26.180Z,7.80
2023-03-29T01:49:34.852Z,9.75
2023-03-29T01:55:40.604Z,10.02
2023-03-29T02:01:49.351Z,13.15
2023-03-29T02:07:53.030Z,13.50
2023-03-29T02:13:56.378Z,12.48
2023-03-29T02:20:13.819Z,8.80
2023-03-29T02:26:17.671Z,9.35
2023-03-29T02:32:42.365Z,14.70
2023-03-29T02:38:44.984Z,14.05
2023-03-29T02:44:48.790Z,13.65
2023-03-29T02:50:56.202Z,8.27
2023-03-29T02:57:00.791Z,11.52
2023-03-29T03:03:04.416Z,12.00
2023-03-29T03:09:07.373Z,11.90
2023-03-29T03:15:13.469Z,14.65
2023-03-29T03:21:15.633Z,14.77
2023-03-29T03:27:18.103Z,14.60
2023-03-29T03:33:20.425Z,12.70
2023-03-29T03:39:48.272Z,12.57
2023-03-29T03:45:51.074Z,13.13
2023-03-29T03:51:56.672Z,11.73
2023-03-29T03:57:59.513Z,13.98
2023-03-29T04:04:03.278Z,15.90
2023-03-29T04:10:08.964Z,12.13
2023-03-29T04:16:24.192Z,12.20
2023-03-29T04:22:27.057Z,15.63
2023-03-29T04:28:29.234Z,16.80
2023-03-29T04:34:43.096Z,14.98
2023-03-29T04:40:45.829Z,14.00
2023-03-29T04:47:06.333Z,14.43
2023-03-29T04:53:08.577Z,12.95
2023-03-29T04:59:10.890Z,17.73
2023-03-29T05:05:14.118Z,18.10
2023-03-29T05:11:17.042Z,12.52
2023-03-29T05:17:19.165Z,15.50
2023-03-29T05:23:22.410Z,17.65
2023-03-29T05:29:42.583Z,16.75
2023-03-29T05:36:04.658Z,15.00
2023-03-29T05:42:07.173Z,15.68
2023-03-29T05:48:25.756Z,13.68
2023-03-29T05:54:27.807Z,14.88
2023-03-29T06:00:31.978Z,13.75
2023-03-29T06:06:48.640Z,15.15
2023-03-29T06:12:51.638Z,15.07
2023-03-29T06:18:56.507Z,13.20
2023-03-29T06:24:58.711Z,15.07
2023-03-29T06:31:06.059Z,15.35
2023-03-29T06:37:13.599Z,12.15
2023-03-29T06:43:15.652Z,13.48
2023-03-29T06:49:40.574Z,16.27
2023-03-29T06:56:09.189Z,15.77
2023-03-29T07:02:19.879Z,13.40
2023-03-29T07:08:43.400Z,14.23
2023-03-29T07:14:53.625Z,12.35
2023-03-29T07:20:57.397Z,12.80
2023-03-29T07:27:04.195Z,10.68
2023-03-29T07:33:10.059Z,13.75
2023-03-29T07:39:17.662Z,10.80
2023-03-29T07:45:34.974Z,14.80
2023-03-29T07:51:43.968Z,9.43
2023-03-29T07:57:49.811Z,11.45
2023-03-29T08:03:52.518Z,10.13
2023-03-29T08:09:58.568Z,11.43
2023-03-29T08:16:13.896Z,10.15
2023-03-29T08:22:23.309Z,8.60
2023-03-29T08:28:54.222Z,10.23
2023-03-29T08:34:58.573Z,14.68
2023-03-29T08:41:38.001Z,11.23
2023-03-29T08:48:07.057Z,7.03
2023-03-29T08:54:33.256Z,9.38
2023-03-29T09:00:54.102Z,7.35
2023-03-29T09:06:57.833Z,7.25
2023-03-29T09:13:17.801Z,8.73
2023-03-29T09:19:51.457Z,8.57
2023-03-29T09:25:58.037Z,8.23
2023-03-29T09:32:24.300Z,8.45
2023-03-29T09:38:38.785Z,9.20
2023-03-29T09:45:08.630Z,10.00
2023-03-29T09:51:25.666Z,10.00
2023-03-29T09:57:29.127Z,6.65
2023-03-29T10:03:34.913Z,8.52
2023-03-29T10:09:50.504Z,7.35
2023-03-29T10:16:09.769Z,7.13
2023-03-29T10:22:26.310Z,8.43
2023-03-29T10:28:28.427Z,8.98
2023-03-29T10:34:30.542Z,6.60
2023-03-29T10:40:35.333Z,7.10
2023-03-29T10:46:46.517Z,6.82
2023-03-29T10:52:50.230Z,7.57
2023-03-29T10:59:14.469Z,8.98
2023-03-29T11:05:49.180Z,7.38
2023-03-29T11:12:18.750Z,7.50
2023-03-29T11:18:50.957Z,7.43
2023-03-29T11:25:23.958Z,8.52
2023-03-29T11:31:33.382Z,8.00
2023-03-29T11:37:48.022Z,7.25
2023-03-29T11:43:59.204Z,6.43
2023-03-29T11:50:14.810Z,9.73
2023-03-29T11:56:29.307Z,7.13
2023-03-29T12:03:16.179Z,8.52
2023-03-29T12:09:24.174Z,10.30
2023-03-29T12:21:30.597Z,10.48
2023-03-29T12:28:00.392Z,9.38
2023-03-29T12:34:21.374Z,8.32
2023-03-29T12:40:28.546Z,7.07
2023-03-29T12:46:54.776Z,9.32
2023-03-29T12:59:38.245Z,9.18
2023-03-29T13:05:40.158Z,10.48
2023-03-29T13:11:42.665Z,7.65
2023-03-29T13:17:56.620Z,7.68
2023-03-29T13:24:12.041Z,10.10
2023-03-29T13:30:33.652Z,11.63
2023-03-29T13:36:51.341Z,9.05
2023-03-29T13:43:30.863Z,8.70
2023-03-29T13:49:34.865Z,7.95
2023-03-29T13:56:03.724Z,8.50
2023-03-29T14:02:06.701Z,12.80
2023-03-29T14:08:28.813Z,10.40
2023-03-29T14:14:32.201Z,9.77
2023-03-29T14:20:36.575Z,10.68
2023-03-29T14:26:40.527Z,9.98
2023-03-29T14:32:42.400Z,10.82
2023-03-29T14:38:49.845Z,11.50
2023-03-29T14:44:56.726Z,10.65
2023-03-29T14:50:59.926Z,7.97
2023-03-29T14:57:07.170Z,7.53
2023-03-29T15:03:16.877Z,9.47
2023-03-29T15:09:30.170Z,8.30
2023-03-29T15:15:34.665Z,9.15
2023-03-29T15:21:38.723Z,9.88
2023-03-29T15:27:42.419Z,8.85
2023-03-29T15:33:44.561Z,9.65
2023-03-29T15:39:46.545Z,8.20
2023-03-29T15:45:48.629Z,9.52
2023-03-29T15:51:53.997Z,9.48
2023-03-29T15:57:58.151Z,10.93
2023-03-29T16:04:16.096Z,7.88
2023-03-29T16:10:17.965Z,14.70
2023-03-29T16:16:19.949Z,9.63
2023-03-29T16:22:22.147Z,8.93
2023-03-29T16:28:24.038Z,11.05
2023-03-29T16:34:26.751Z,8.10
2023-03-29T16:40:31.623Z,6.68
2023-03-29T16:46:33.694Z,7.53
2023-03-29T16:52:35.614Z,4.57
2023-03-29T16:58:39.596Z,5.75
2023-03-29T17:04:41.926Z,6.25
2023-03-29T17:10:44.276Z,6.57
2023-03-29T17:16:46.413Z,8.55
2023-03-29T17:22:51.559Z,6.18
2023-03-29T17:28:53.361Z,8.73
2023-03-29T17:35:01.858Z,5.38
2023-03-29T17:41:04.530Z,8.27
2023-03-29T17:47:06.700Z,6.90
2023-03-29T17:53:10.179Z,11.20
2023-03-29T17:59:12.074Z,6.38
2023-03-29T18:05:13.913Z,8.18
2023-03-29T18:11:22.944Z,6.45
2023-03-29T18:17:27.969Z,8.73
2023-03-29T18:23:30.391Z,8.02
2023-03-29T18:29:35.766Z,6.00
2023-03-29T18:35:38.548Z,10.27
2023-03-29T18:41:41.058Z,7.68
2023-03-29T18:47:46.871Z,6.47
2023-03-29T18:53:56.247Z,5.70
2023-03-29T19:00:01.417Z,9.50
2023-03-29T19:06:06.450Z,6.45
2023-03-29T19:12:18.327Z,7.53
2023-03-29T19:18:20.196Z,5.85
2023-03-29T19:24:23.084Z,9.57
2023-03-29T19:30:25.840Z,6.22
2023-03-29T19:36:28.304Z,6.93
2023-03-29T19:42:30.390Z,8.43
2023-03-29T19:48:32.259Z,8.77
2023-03-29T19:54:34.179Z,5.93
2023-03-29T20:00:38.766Z,7.65
2023-03-29T20:06:40.753Z,6.50
2023-03-29T20:12:42.606Z,8.38
2023-03-29T20:18:45.721Z,9.88
2023-03-29T20:24:47.514Z,8.88
2023-03-29T20:30:51.272Z,12.95
2023-03-29T20:36:55.393Z,8.07
2023-03-29T20:42:57.586Z,8.65
2023-03-29T20:49:01.560Z,7.28
2023-03-29T20:55:04.211Z,9.55
2023-03-29T21:01:06.381Z,7.47
2023-03-29T21:07:08.401Z,8.45
2023-03-29T21:13:10.706Z,9.52
2023-03-29T21:19:12.953Z,9.43
2023-03-29T21:25:15.873Z,9.63
2023-03-29T21:31:17.807Z,9.07
2023-03-29T21:37:19.655Z,9.30
2023-03-29T21:43:21.551Z,11.27
2023-03-29T21:49:23.425Z,9.02
2023-03-29T21:55:27.829Z,14.05
2023-03-29T22:01:29.903Z,9.50
2023-03-29T22:07:35.192Z,9.55
2023-03-29T22:13:37.597Z,14.40
2023-03-29T22:19:40.078Z,11.77
2023-03-29T22:25:41.993Z,13.68
2023-03-29T22:31:43.813Z,9.90
2023-03-29T22:37:45.790Z,14.13
2023-03-29T22:43:47.614Z,10.07
2023-03-29T22:49:49.541Z,16.85
2023-03-29T22:55:51.576Z,9.73
2023-03-29T23:01:53.472Z,10.32
2023-03-29T23:07:55.888Z,10.70
2023-03-29T23:13:57.765Z,10.60
2023-03-29T23:19:59.638Z,11.20
2023-03-29T23:26:01.845Z,10.93
2023-03-29T23:32:04.209Z,8.75
2023-03-29T23:38:06.027Z,10.15
2023-03-29T23:44:07.962Z,12.13
2023-03-29T23:50:13.569Z,10.70
2023-03-29T23:56:15.754Z,11.00
